Nippon Maru — JNNU — position and weather

sailwx.info

Track history (hours):
 
Tides and Currents Weather Stations Pressure Air Temp Water Temp Dewpoint Dewpoint Depression Visibility Wind Speed Wind Dir Waves Ship Positions

Nippon Maru

Last reported at 2019-Jul-18 10:20 UTC. Time now 2019-Jul-22 14:02 UTC.
Position N 35°05' E 139°43'.

Length 167 m; draft 6.5 m.

Type: Passenger vessel. MMSI: 431302000.

Date/timePositionNaut miles runAvg speedWind from/ knotsBaromVisibWave heightAir tempDewpointWater temp
2019-Jul-18 10:20N 35°05' E 139°43'516.2
2019-Jul-18 10:00N 35°10' E 139°45'612.3
2019-Jul-18 09:30N 35°16' E 139°46'5 9.7
2019-Jul-18 09:00N 35°20' E 139°43'612.6
2019-Jul-18 08:30N 35°26' E 139°43'4 7.0
2019-Jul-18 08:00N 35°27' E 139°39'0 0.2
2019-Jul-18 07:30N 35°27' E 139°39'0 0.0
2019-Jul-18 07:00N 35°27' E 139°39'0 0.0
2019-Jul-18 06:30N 35°27' E 139°39'0 0.0
2019-Jul-18 06:00N 35°27' E 139°39'0 0.0
2019-Jul-18 05:30N 35°27' E 139°39'0 0.0
2019-Jul-18 05:00N 35°27' E 139°39'0 0.0
2019-Jul-18 04:30N 35°27' E 139°39'0 0.0
2019-Jul-18 04:00N 35°27' E 139°39'0 0.0
2019-Jul-18 03:30N 35°27' E 139°39'0 0.0
2019-Jul-18 03:00N 35°27' E 139°39'0 0.0
2019-Jul-18 02:30N 35°27' E 139°39'0 0.0
2019-Jul-18 02:00N 35°27' E 139°39'0 0.0
2019-Jul-18 01:30N 35°27' E 139°39'0 0.0
2019-Jul-18 01:00N 35°27' E 139°39'0 0.0
2019-Jul-18 00:30N 35°27' E 139°39'0 0.0
2019-Jul-18 00:00N 35°27' E 139°39'0 0.4
2019-Jul-17 23:30N 35°27' E 139°39'3 6.2
2019-Jul-17 23:00N 35°26' E 139°42'5 9.8
2019-Jul-17 22:30N 35°21' E 139°43'612.0
2019-Jul-17 22:00N 35°16' E 139°46'611.1
2019-Jul-17 21:30N 35°10' E 139°46'611.4
2019-Jul-17 20:57N 35°04' E 139°44'613.2
2019-Jul-17 20:29N 34°59' E 139°41'  
2019-Jul-13 14:20N 35°03' E 139°41'617.4
2019-Jul-13 14:00N 35°08' E 139°44'714.2
2019-Jul-13 13:31N 35°15' E 139°46'611.8
2019-Jul-13 13:01N 35°20' E 139°42'713.5
2019-Jul-13 12:30N 35°27' E 139°42'2 4.8
2019-Jul-13 12:00N 35°27' E 139°39'0 0.0
2019-Jul-13 11:26N 35°27' E 139°39'0 0.0
2019-Jul-13 10:59N 35°27' E 139°39'0 0.0
2019-Jul-13 10:29N 35°27' E 139°39'0 0.0
2019-Jul-13 09:59N 35°27' E 139°39'0 0.0
2019-Jul-13 09:29N 35°27' E 139°39'0 0.0
2019-Jul-13 08:59N 35°27' E 139°39'0 0.0
2019-Jul-13 08:29N 35°27' E 139°39'0 0.0
2019-Jul-13 07:59N 35°27' E 139°39'0 0.0
2019-Jul-13 07:29N 35°27' E 139°39'0 0.0
2019-Jul-13 06:59N 35°27' E 139°39'0 0.0
2019-Jul-13 06:29N 35°27' E 139°39'0 0.0
2019-Jul-13 05:59N 35°27' E 139°39'0 0.0
2019-Jul-13 05:29N 35°27' E 139°39'0 0.0
2019-Jul-13 04:59N 35°27' E 139°39'0 0.0
2019-Jul-13 04:29N 35°27' E 139°39'0 0.0
2019-Jul-13 03:59N 35°27' E 139°39'0 0.0
2019-Jul-13 03:29N 35°27' E 139°39'0 0.8
2019-Jul-13 03:01N 35°27' E 139°39'0 0.8
2019-Jul-13 02:30N 35°27' E 139°39'0 0.0
2019-Jul-13 02:00N 35°27' E 139°39'0 0.0
2019-Jul-13 01:30N 35°27' E 139°39'1 1.3
2019-Jul-13 01:00N 35°27' E 139°40'3 6.1
2019-Jul-13 00:30N 35°25' E 139°43'611.6
2019-Jul-13 00:00N 35°20' E 139°43'713.2
2019-Jul-12 23:30N 35°14' E 139°47'611.1
2019-Jul-12 23:00N 35°08' E 139°46'814.9
2019-Jul-12 22:27N 35°00' E 139°42'2611.4
2019-Jul-12 20:10N 34°54' E 140°12'  
Track history (hours):
 
Tides and Currents Weather Stations Pressure Air Temp Water Temp Dewpoint Dewpoint Depression Visibility Wind Speed Wind Dir Waves Ship Positions

Nippon Maru

Last reported at 2019-Jul-18 10:20 UTC. Time now 2019-Jul-22 14:02 UTC.
Position N 35°05' E 139°43'.

Length 167 m; draft 6.5 m.

Type: Passenger vessel. MMSI: 431302000.

Date/timePositionNaut miles runAvg speedWind from/ knotsBaromVisibWave heightAir tempDewpointWater temp
2019-Jul-18 10:20N 35°05' E 139°43'516.2
2019-Jul-18 10:00N 35°10' E 139°45'612.3
2019-Jul-18 09:30N 35°16' E 139°46'5 9.7
2019-Jul-18 09:00N 35°20' E 139°43'612.6
2019-Jul-18 08:30N 35°26' E 139°43'4 7.0
2019-Jul-18 08:00N 35°27' E 139°39'0 0.2
2019-Jul-18 07:30N 35°27' E 139°39'0 0.0
2019-Jul-18 07:00N 35°27' E 139°39'0 0.0
2019-Jul-18 06:30N 35°27' E 139°39'0 0.0
2019-Jul-18 06:00N 35°27' E 139°39'0 0.0
2019-Jul-18 05:30N 35°27' E 139°39'0 0.0
2019-Jul-18 05:00N 35°27' E 139°39'0 0.0
2019-Jul-18 04:30N 35°27' E 139°39'0 0.0
2019-Jul-18 04:00N 35°27' E 139°39'0 0.0
2019-Jul-18 03:30N 35°27' E 139°39'0 0.0
2019-Jul-18 03:00N 35°27' E 139°39'0 0.0
2019-Jul-18 02:30N 35°27' E 139°39'0 0.0
2019-Jul-18 02:00N 35°27' E 139°39'0 0.0
2019-Jul-18 01:30N 35°27' E 139°39'0 0.0
2019-Jul-18 01:00N 35°27' E 139°39'0 0.0
2019-Jul-18 00:30N 35°27' E 139°39'0 0.0
2019-Jul-18 00:00N 35°27' E 139°39'0 0.4
2019-Jul-17 23:30N 35°27' E 139°39'3 6.2
2019-Jul-17 23:00N 35°26' E 139°42'5 9.8
2019-Jul-17 22:30N 35°21' E 139°43'612.0
2019-Jul-17 22:00N 35°16' E 139°46'611.1
2019-Jul-17 21:30N 35°10' E 139°46'611.4
2019-Jul-17 20:57N 35°04' E 139°44'613.2
2019-Jul-17 20:29N 34°59' E 139°41'  
2019-Jul-13 14:20N 35°03' E 139°41'617.4
2019-Jul-13 14:00N 35°08' E 139°44'714.2
2019-Jul-13 13:31N 35°15' E 139°46'611.8
2019-Jul-13 13:01N 35°20' E 139°42'713.5
2019-Jul-13 12:30N 35°27' E 139°42'2 4.8
2019-Jul-13 12:00N 35°27' E 139°39'0 0.0
2019-Jul-13 11:26N 35°27' E 139°39'0 0.0
2019-Jul-13 10:59N 35°27' E 139°39'0 0.0
2019-Jul-13 10:29N 35°27' E 139°39'0 0.0
2019-Jul-13 09:59N 35°27' E 139°39'0 0.0
2019-Jul-13 09:29N 35°27' E 139°39'0 0.0
2019-Jul-13 08:59N 35°27' E 139°39'0 0.0
2019-Jul-13 08:29N 35°27' E 139°39'0 0.0
2019-Jul-13 07:59N 35°27' E 139°39'0 0.0
2019-Jul-13 07:29N 35°27' E 139°39'0 0.0
2019-Jul-13 06:59N 35°27' E 139°39'0 0.0
2019-Jul-13 06:29N 35°27' E 139°39'0 0.0
2019-Jul-13 05:59N 35°27' E 139°39'0 0.0
2019-Jul-13 05:29N 35°27' E 139°39'0 0.0
2019-Jul-13 04:59N 35°27' E 139°39'0 0.0
2019-Jul-13 04:29N 35°27' E 139°39'0 0.0
2019-Jul-13 03:59N 35°27' E 139°39'0 0.0
2019-Jul-13 03:29N 35°27' E 139°39'0 0.8
2019-Jul-13 03:01N 35°27' E 139°39'0 0.8
2019-Jul-13 02:30N 35°27' E 139°39'0 0.0
2019-Jul-13 02:00N 35°27' E 139°39'0 0.0
2019-Jul-13 01:30N 35°27' E 139°39'1 1.3
2019-Jul-13 01:00N 35°27' E 139°40'3 6.1
2019-Jul-13 00:30N 35°25' E 139°43'611.6
2019-Jul-13 00:00N 35°20' E 139°43'713.2
2019-Jul-12 23:30N 35°14' E 139°47'611.1
2019-Jul-12 23:00N 35°08' E 139°46'814.9
2019-Jul-12 22:27N 35°00' E 139°42'2611.4
2019-Jul-12 20:10N 34°54' E 140°12'  

Dump ship's entire track history